Time;durP1;ratioP1;P1;durP2;ratioP2;P2;SDS_P1;SDS_P2;PMS_P1;PMS_P2;Temp;Humidity;BMP_temperature;BMP_pressure;BME280_temperature;BME280_humidity;BME280_pressure;Samples;Min_cycle;Max_cycle;Signal;HPM_P1;HPM_P2
2022/12/05 00:00:57;;;;;;;21.30;14.43;;;4.50;99.90;;;;;;4841615;29;20057;-82
2022/12/05 00:03:22;;;;;;;19.23;14.25;;;4.60;99.90;;;;;;4794897;29;20042;-82
2022/12/05 00:05:48;;;;;;;20.42;14.73;;;4.60;99.90;;;;;;4796138;29;20130;-83
2022/12/05 00:08:14;;;;;;;20.75;14.90;;;4.60;99.90;;;;;;4814699;29;20046;-82
2022/12/05 00:10:40;;;;;;;20.48;14.98;;;4.60;99.90;;;;;;4811755;29;20219;-82
2022/12/05 00:13:06;;;;;;;21.13;16.23;;;4.60;99.90;;;;;;4809653;29;20046;-82
2022/12/05 00:15:39;;;;;;;21.95;16.45;;;4.60;99.90;;;;;;4820519;29;20548;-81
2022/12/05 00:18:05;;;;;;;22.65;17.80;;;4.60;99.90;;;;;;4794816;29;20058;-82
2022/12/05 00:20:31;;;;;;;23.98;18.17;;;4.60;99.90;;;;;;4787871;29;20046;-82
2022/12/05 00:22:56;;;;;;;25.17;18.92;;;4.60;99.90;;;;;;4825556;29;20046;-82
2022/12/05 00:25:22;;;;;;;28.52;18.73;;;4.60;99.90;;;;;;4806352;29;20091;-82
2022/12/05 00:27:47;;;;;;;25.65;19.13;;;4.60;99.90;;;;;;4806882;29;20105;-82
2022/12/05 00:30:13;;;;;;;24.60;18.63;;;4.60;99.90;;;;;;4807302;29;20042;-82
2022/12/05 00:32:38;;;;;;;24.63;18.60;;;4.60;99.90;;;;;;4805233;29;20053;-82
2022/12/05 00:35:04;;;;;;;26.23;19.65;;;4.60;99.90;;;;;;4806378;29;20575;-82
2022/12/05 00:37:30;;;;;;;25.08;18.58;;;4.60;99.90;;;;;;4806048;29;20398;-82
2022/12/05 00:39:55;;;;;;;24.75;18.67;;;4.60;99.90;;;;;;4804350;29;20107;-82
2022/12/05 00:42:21;;;;;;;23.23;18.92;;;4.60;99.90;;;;;;4808671;29;20034;-82
2022/12/05 00:44:48;;;;;;;25.48;18.80;;;4.60;99.90;;;;;;4806416;29;20119;-82
2022/12/05 00:47:14;;;;;;;23.95;18.98;;;4.60;99.90;;;;;;4819774;29;20046;-82
2022/12/05 00:49:39;;;;;;;27.55;17.50;;;4.70;99.90;;;;;;4803090;29;20111;-82
2022/12/05 00:52:05;;;;;;;24.27;17.88;;;4.60;99.90;;;;;;4821177;29;20046;-82
2022/12/05 00:54:31;;;;;;;23.88;19.02;;;4.70;99.90;;;;;;4788477;29;20041;-82
2022/12/05 00:56:56;;;;;;;22.40;17.45;;;4.60;99.90;;;;;;4789847;29;20042;-82
2022/12/05 00:59:22;;;;;;;24.83;18.17;;;4.60;99.90;;;;;;4804152;29;20041;-82
2022/12/05 01:01:49;;;;;;;24.52;18.30;;;4.60;99.90;;;;;;4804167;29;20042;-81
2022/12/05 01:04:21;;;;;;;25.33;17.77;;;4.70;99.90;;;;;;4801285;29;20046;-82
2022/12/05 01:06:48;;;;;;;24.60;18.15;;;4.60;99.90;;;;;;4804257;29;20058;-82
2022/12/05 01:09:16;;;;;;;21.35;18.00;;;4.70;99.90;;;;;;4818841;29;20422;-81
2022/12/05 01:11:43;;;;;;;24.27;18.88;;;4.70;99.90;;;;;;4788306;29;20107;-81
2022/12/05 01:14:10;;;;;;;24.15;17.60;;;4.70;99.90;;;;;;4804310;29;20820;-81
2022/12/05 01:16:37;;;;;;;24.95;19.50;;;4.70;99.90;;;;;;4788475;29;20054;-82
2022/12/05 01:19:09;;;;;;;23.90;18.20;;;4.70;99.90;;;;;;4805502;29;20145;-82
2022/12/05 01:21:35;;;;;;;25.50;18.85;;;4.70;99.90;;;;;;4801398;29;20138;-82
2022/12/05 01:24:00;;;;;;;26.23;19.45;;;4.80;99.90;;;;;;4804375;29;20169;-82
2022/12/05 01:26:26;;;;;;;29.08;20.10;;;4.80;99.90;;;;;;4819018;29;20046;-82
2022/12/05 01:28:52;;;;;;;27.92;19.63;;;4.80;99.90;;;;;;4803432;29;20756;-82
2022/12/05 01:31:28;;;;;;;31.55;21.73;;;4.80;99.90;;;;;;4805823;29;20064;-82
2022/12/05 01:33:57;;;;;;;30.08;20.23;;;4.80;99.90;;;;;;4819414;29;20077;-82
2022/12/05 01:36:24;;;;;;;27.67;19.48;;;4.80;99.90;;;;;;4799959;29;20170;-81
2022/12/05 01:38:50;;;;;;;25.05;19.15;;;4.90;99.90;;;;;;4803700;29;20038;-82
2022/12/05 01:41:37;;;;;;;27.70;21.13;;;4.90;99.90;;;;;;4804096;29;20107;-82
2022/12/05 01:44:26;;;;;;;29.50;20.58;;;4.90;99.90;;;;;;4818275;29;20074;-82
2022/12/05 01:46:53;;;;;;;32.90;21.30;;;4.80;99.90;;;;;;4804514;29;20050;-81
2022/12/05 01:49:38;;;;;;;37.75;22.55;;;4.90;99.90;;;;;;4804442;29;20053;-82
2022/12/05 01:52:25;;;;;;;37.38;23.67;;;5.00;99.90;;;;;;4806456;29;20069;-82
2022/12/05 01:54:55;;;;;;;41.70;26.17;;;5.50;99.90;;;;;;4806256;29;20054;-82
2022/12/05 01:57:22;;;;;;;45.22;27.00;;;5.00;99.90;;;;;;4789508;29;21633;-82
2022/12/05 01:59:52;;;;;;;38.85;26.10;;;5.00;99.90;;;;;;4809764;29;20040;-82
2022/12/05 02:02:19;;;;;;;38.72;25.70;;;5.10;99.90;;;;;;4788228;29;20042;-82
2022/12/05 02:05:08;;;;;;;40.17;26.08;;;5.00;99.90;;;;;;4804218;29;20066;-82
2022/12/05 02:07:37;;;;;;;38.97;26.15;;;5.00;99.90;;;;;;4791304;29;20042;-82
2022/12/05 02:10:03;;;;;;;36.15;24.05;;;5.10;99.90;;;;;;4804538;29;20034;-82
2022/12/05 02:12:28;;;;;;;38.08;24.25;;;5.10;99.90;;;;;;4802561;29;20045;-82
2022/12/05 02:15:09;;;;;;;38.03;25.92;;;5.10;99.90;;;;;;4803520;29;20045;-82
2022/12/05 02:17:41;;;;;;;39.05;25.33;;;5.00;99.90;;;;;;4802660;29;20133;-82
2022/12/05 02:20:24;;;;;;;38.63;23.42;;;5.10;99.90;;;;;;4802726;29;20058;-82
2022/12/05 02:23:24;;;;;;;36.75;24.90;;;5.10;99.90;;;;;;4834819;29;20077;-82
2022/12/05 02:25:53;;;;;;;40.33;24.27;;;5.10;99.90;;;;;;4803040;29;20042;-82
2022/12/05 02:28:35;;;;;;;36.63;23.75;;;5.10;99.90;;;;;;4806263;29;20760;-82
2022/12/05 02:31:13;;;;;;;41.22;26.38;;;5.10;99.90;;;;;;4805313;29;20048;-82
2022/12/05 02:33:49;;;;;;;43.35;26.85;;;5.10;99.90;;;;;;4786914;29;20293;-82
2022/12/05 02:36:38;;;;;;;40.17;27.40;;;5.10;99.90;;;;;;4804327;29;20560;-82
2022/12/05 02:39:14;;;;;;;41.45;26.27;;;5.10;99.90;;;;;;4819989;29;20046;-82
2022/12/05 02:41:44;;;;;;;44.28;26.83;;;5.10;99.90;;;;;;4802853;29;20087;-82
2022/12/05 02:44:16;;;;;;;47.20;26.63;;;5.00;99.90;;;;;;4808554;29;20046;-82
2022/12/05 02:46:45;;;;;;;40.42;25.27;;;5.10;99.90;;;;;;4805927;29;20054;-82
2022/12/05 02:49:17;;;;;;;40.85;26.08;;;5.00;99.90;;;;;;4805475;29;20050;-82
2022/12/05 02:51:54;;;;;;;39.47;26.17;;;5.10;99.90;;;;;;4803977;29;20043;-81
2022/12/05 02:54:26;;;;;;;37.70;25.17;;;5.00;99.90;;;;;;4790892;29;20056;-81
2022/12/05 02:56:55;;;;;;;45.83;26.92;;;5.00;99.90;;;;;;4791623;29;20099;-82
2022/12/05 02:59:20;;;;;;;40.15;25.05;;;5.10;99.90;;;;;;4821674;29;20046;-82
2022/12/05 03:01:48;;;;;;;42.40;25.52;;;5.10;99.90;;;;;;4805727;29;20127;-82
2022/12/05 03:04:15;;;;;;;38.95;24.58;;;5.10;99.90;;;;;;4818764;29;20145;-82
2022/12/05 03:06:44;;;;;;;38.78;24.90;;;5.10;99.90;;;;;;4787967;29;20046;-82
2022/12/05 03:09:21;;;;;;;39.95;25.75;;;5.10;99.90;;;;;;4792867;29;20042;-82
2022/12/05 03:11:50;;;;;;;38.38;26.02;;;5.10;99.90;;;;;;4799455;29;20081;-82
2022/12/05 03:14:27;;;;;;;44.30;26.35;;;5.10;99.90;;;;;;4807353;29;20034;-82
2022/12/05 03:16:58;;;;;;;43.00;26.00;;;5.20;99.90;;;;;;4809024;29;20070;-82
2022/12/05 03:19:25;;;;;;;47.30;25.67;;;5.10;99.90;;;;;;4787074;29;20046;-82
2022/12/05 03:22:07;;;;;;;44.42;27.75;;;5.10;99.90;;;;;;4802288;29;20498;-82
2022/12/05 03:24:36;;;;;;;45.05;27.33;;;5.10;99.90;;;;;;4815357;29;20058;-82
2022/12/05 03:27:29;;;;;;;49.08;27.35;;;5.10;99.90;;;;;;4810277;29;20502;-83
2022/12/05 03:30:06;;;;;;;43.80;25.60;;;5.10;99.90;;;;;;4804705;29;20129;-82
2022/12/05 03:32:43;;;;;;;44.97;26.55;;;5.10;99.90;;;;;;4803459;29;20073;-82
2022/12/05 03:35:16;;;;;;;37.13;23.75;;;5.10;99.90;;;;;;4800480;29;20046;-82
2022/12/05 03:37:50;;;;;;;44.15;25.52;;;5.10;99.90;;;;;;4823013;29;20047;-82
2022/12/05 03:40:26;;;;;;;41.22;24.60;;;5.10;99.90;;;;;;4805162;29;20080;-82
2022/12/05 03:42:59;;;;;;;38.03;23.92;;;5.10;99.90;;;;;;4807202;29;20046;-81
2022/12/05 03:45:35;;;;;;;39.92;24.70;;;5.10;99.90;;;;;;4804655;29;20088;-82
2022/12/05 03:48:13;;;;;;;33.58;22.50;;;5.10;99.90;;;;;;4807353;29;20042;-82
2022/12/05 03:50:44;;;;;;;38.45;23.17;;;5.10;99.90;;;;;;4820170;29;20065;-82
2022/12/05 03:53:27;;;;;;;33.85;21.75;;;5.10;99.90;;;;;;4813267;29;20142;-82
2022/12/05 03:56:04;;;;;;;39.72;22.85;;;5.10;99.90;;;;;;4803406;29;20081;-82
2022/12/05 03:58:36;;;;;;;38.60;22.65;;;5.10;99.90;;;;;;4788320;29;20042;-82
2022/12/05 04:01:05;;;;;;;31.85;21.48;;;5.10;99.90;;;;;;4819861;29;20049;-82
2022/12/05 04:03:53;;;;;;;33.92;22.13;;;5.10;99.90;;;;;;4816710;29;20049;-81
2022/12/05 04:06:22;;;;;;;30.77;19.70;;;5.10;99.90;;;;;;4804267;29;20066;-82
2022/12/05 04:08:52;;;;;;;27.48;18.40;;;5.10;99.90;;;;;;4819483;29;20042;-82
2022/12/05 04:11:22;;;;;;;24.35;16.75;;;5.10;99.90;;;;;;4803727;29;20046;-82
2022/12/05 04:14:00;;;;;;;27.83;17.40;;;5.10;99.90;;;;;;4808704;29;20065;-82
2022/12/05 04:19:27;;;;;;;25.85;17.15;;;5.10;99.90;;;;;;4803108;29;20057;-82
2022/12/05 04:21:55;;;;;;;25.05;18.05;;;5.20;99.90;;;;;;4804417;29;20122;-82
2022/12/05 04:27:14;;;;;;;21.48;15.40;;;5.20;99.90;;;;;;4808320;29;20061;-82
2022/12/05 04:30:02;;;;;;;19.70;15.27;;;5.20;99.90;;;;;;4805067;29;20058;-82
2022/12/05 04:32:43;;;;;;;25.48;16.83;;;5.20;99.90;;;;;;4791014;29;20054;-83
2022/12/05 04:35:16;;;;;;;22.05;15.93;;;5.20;99.90;;;;;;4834822;29;20806;-82
2022/12/05 04:37:46;;;;;;;22.20;16.27;;;5.20;99.90;;;;;;4813816;29;21423;-82
2022/12/05 04:40:28;;;;;;;19.13;14.80;;;5.20;99.90;;;;;;4805024;29;20042;-82
2022/12/05 04:42:57;;;;;;;20.40;15.25;;;5.20;99.90;;;;;;4806607;29;20390;-82
2022/12/05 04:45:24;;;;;;;20.63;15.73;;;5.20;99.90;;;;;;4789121;29;20050;-82
2022/12/05 04:47:54;;;;;;;20.15;14.45;;;5.20;99.90;;;;;;4803006;29;20077;-83
2022/12/05 04:50:21;;;;;;;19.65;13.77;;;5.30;99.90;;;;;;4802003;29;20053;-82
2022/12/05 04:52:50;;;;;;;21.20;15.15;;;5.30;99.90;;;;;;4803141;29;20098;-82
2022/12/05 04:55:24;;;;;;;16.35;12.50;;;5.30;99.90;;;;;;4802618;29;20208;-82
2022/12/05 04:57:58;;;;;;;16.88;13.07;;;5.30;99.90;;;;;;4805585;29;20054;-83
2022/12/05 05:00:27;;;;;;;14.95;12.55;;;5.30;99.90;;;;;;4797015;29;20054;-85
2022/12/05 05:02:59;;;;;;;15.45;11.63;;;5.30;99.90;;;;;;4802777;29;20056;-86
2022/12/05 05:05:26;;;;;;;13.57;10.90;;;5.30;99.90;;;;;;4777554;29;20042;-85
2022/12/05 05:08:00;;;;;;;16.45;10.93;;;5.30;99.90;;;;;;4790875;29;20429;-85
2022/12/05 05:10:38;;;;;;;14.38;9.98;;;5.30;99.90;;;;;;4788830;29;20046;-85
2022/12/05 05:13:04;;;;;;;12.68;10.27;;;5.20;99.90;;;;;;4806027;29;20126;-84
2022/12/05 05:15:30;;;;;;;10.23;8.88;;;5.30;99.90;;;;;;4784319;29;20155;-84
2022/12/05 05:17:56;;;;;;;13.20;10.25;;;5.30;99.90;;;;;;4801909;29;20760;-86
2022/12/05 05:20:22;;;;;;;9.82;8.75;;;5.00;99.90;;;;;;4785711;29;20046;-84
2022/12/05 05:22:49;;;;;;;11.48;9.55;;;5.30;99.90;;;;;;4786225;29;20742;-84
2022/12/05 05:25:15;;;;;;;13.43;10.35;;;5.30;99.90;;;;;;4814021;29;20049;-84
2022/12/05 05:27:40;;;;;;;10.82;9.32;;;5.30;99.90;;;;;;4798125;29;20056;-81
2022/12/05 05:30:12;;;;;;;9.93;8.95;;;5.30;99.90;;;;;;4803603;29;20050;-86
2022/12/05 05:32:38;;;;;;;11.80;8.93;;;5.30;99.90;;;;;;4828080;29;20042;-85
2022/12/05 05:35:04;;;;;;;9.23;8.02;;;5.30;99.90;;;;;;4784344;29;20112;-82
2022/12/05 05:37:29;;;;;;;9.02;8.07;;;5.60;99.90;;;;;;4800531;29;20042;-82
2022/12/05 05:39:55;;;;;;;8.43;7.55;;;5.30;99.90;;;;;;4805033;29;20046;-81
2022/12/05 05:42:20;;;;;;;8.27;7.47;;;5.30;99.90;;;;;;4802188;29;20125;-81
2022/12/05 05:44:46;;;;;;;8.98;8.02;;;5.30;99.90;;;;;;4805034;29;20629;-81
2022/12/05 05:47:11;;;;;;;7.85;7.05;;;5.30;99.90;;;;;;4804191;29;20492;-82
2022/12/05 05:49:37;;;;;;;8.20;7.38;;;5.30;99.90;;;;;;4788076;29;20161;-82
2022/12/05 05:52:03;;;;;;;9.38;7.57;;;5.30;99.90;;;;;;4805001;29;20114;-82
2022/12/05 05:54:28;;;;;;;10.60;8.40;;;5.30;99.90;;;;;;4823037;29;20038;-82
2022/12/05 05:56:54;;;;;;;8.88;7.28;;;5.40;99.90;;;;;;4803535;29;20746;-82
2022/12/05 05:59:19;;;;;;;9.02;7.80;;;5.30;99.90;;;;;;4805909;29;20046;-83
2022/12/05 06:01:45;;;;;;;9.23;7.38;;;5.40;99.90;;;;;;4800573;29;20050;-82
2022/12/05 06:04:11;;;;;;;9.02;8.13;;;5.30;99.90;;;;;;4804926;29;20057;-82
2022/12/05 06:06:37;;;;;;;8.02;7.20;;;5.40;99.90;;;;;;4799426;29;20946;-82
2022/12/05 06:09:05;;;;;;;8.85;7.32;;;5.30;99.90;;;;;;4802753;29;20046;-81
2022/12/05 06:11:31;;;;;;;8.70;7.88;;;5.40;99.90;;;;;;4798003;29;20559;-84
2022/12/05 06:14:01;;;;;;;10.65;8.38;;;5.40;99.90;;;;;;4818408;29;20042;-81
2022/12/05 06:16:28;;;;;;;7.72;6.93;;;5.40;99.90;;;;;;4803782;29;20069;-84
2022/12/05 06:18:54;;;;;;;8.30;7.20;;;5.40;99.90;;;;;;4797947;29;20046;-83
2022/12/05 06:21:20;;;;;;;9.85;7.68;;;5.40;99.90;;;;;;4800793;29;20051;-84
2022/12/05 06:23:46;;;;;;;9.27;7.90;;;5.40;99.90;;;;;;4816176;29;20401;-84
2022/12/05 06:26:14;;;;;;;11.93;8.10;;;5.40;99.90;;;;;;4815183;29;20042;-82
2022/12/05 06:28:41;;;;;;;8.23;7.13;;;5.40;99.90;;;;;;4797015;29;20050;-82
2022/12/05 06:31:20;;;;;;;11.68;7.30;;;5.30;99.90;;;;;;4809318;29;20065;-84
2022/12/05 06:33:46;;;;;;;8.05;7.13;;;5.40;99.90;;;;;;4809438;29;20136;-84
2022/12/05 06:36:14;;;;;;;10.65;7.47;;;5.40;99.90;;;;;;4796312;29;20050;-82
2022/12/05 06:38:40;;;;;;;10.65;7.47;;;5.40;99.90;;;;;;4808243;29;20500;-86
2022/12/05 06:41:08;;;;;;;8.93;7.18;;;5.40;99.90;;;;;;4810474;29;20191;-82
2022/12/05 06:43:33;;;;;;;8.80;7.07;;;5.40;99.90;;;;;;4794182;29;20109;-81
2022/12/05 06:46:03;;;;;;;8.48;7.57;;;5.40;99.90;;;;;;4791819;29;20149;-82
2022/12/05 06:48:28;;;;;;;10.73;7.22;;;5.40;99.90;;;;;;4811525;29;20417;-81
2022/12/05 06:50:54;;;;;;;7.53;6.55;;;5.40;99.90;;;;;;4798033;29;20038;-81
2022/12/05 06:53:20;;;;;;;8.70;7.13;;;5.40;99.90;;;;;;4810175;29;20050;-82
2022/12/05 06:55:59;;;;;;;9.98;7.82;;;5.40;99.90;;;;;;4811985;29;20054;-81
2022/12/05 06:58:26;;;;;;;8.75;7.57;;;5.40;99.90;;;;;;4803530;29;20054;-82
2022/12/05 07:03:36;;;;;;;9.02;7.07;;;5.40;99.90;;;;;;4828551;29;20147;-81
2022/12/05 07:06:03;;;;;;;9.95;7.50;;;5.40;99.90;;;;;;4811102;29;20046;-81
2022/12/05 07:08:29;;;;;;;7.85;6.25;;;5.40;99.90;;;;;;4795385;29;20046;-81
2022/12/05 07:10:55;;;;;;;8.82;6.50;;;5.40;99.90;;;;;;4811465;29;20719;-81
2022/12/05 07:13:20;;;;;;;7.75;6.60;;;5.40;99.90;;;;;;4794611;29;20050;-81
2022/12/05 07:15:47;;;;;;;9.55;7.20;;;5.40;99.90;;;;;;4808167;29;20050;-82
2022/12/05 07:18:13;;;;;;;9.60;6.88;;;5.50;99.90;;;;;;4811595;29;20046;-81
2022/12/05 07:20:39;;;;;;;8.68;6.97;;;5.40;99.90;;;;;;4811645;29;20042;-81
2022/12/05 07:23:05;;;;;;;9.43;7.13;;;5.50;99.90;;;;;;4809171;29;20183;-82
2022/12/05 07:25:30;;;;;;;8.32;6.65;;;5.40;99.90;;;;;;4812998;29;20049;-81
2022/12/05 07:27:56;;;;;;;10.55;7.10;;;5.40;99.90;;;;;;4826703;29;20153;-81
2022/12/05 07:30:21;;;;;;;11.63;7.70;;;5.40;99.90;;;;;;4808731;29;20174;-81
2022/12/05 07:32:47;;;;;;;13.48;8.25;;;5.40;99.90;;;;;;4812514;29;20045;-82
2022/12/05 07:35:13;;;;;;;11.13;7.82;;;5.50;99.90;;;;;;4816054;29;20050;-82
2022/12/05 07:37:38;;;;;;;9.35;8.07;;;5.50;99.90;;;;;;4815694;29;20050;-82
2022/12/05 07:40:04;;;;;;;10.43;8.38;;;5.40;99.90;;;;;;4816795;29;20070;-81
2022/12/05 07:42:30;;;;;;;10.27;8.05;;;5.40;99.90;;;;;;4814027;29;20046;-82
2022/12/05 07:44:56;;;;;;;10.07;7.85;;;5.40;99.90;;;;;;4797100;29;20045;-82
2022/12/05 07:47:21;;;;;;;13.93;8.40;;;5.40;99.90;;;;;;4811232;29;20205;-82
2022/12/05 07:49:47;;;;;;;11.15;7.35;;;5.40;99.90;;;;;;4813350;29;20121;-82
2022/12/05 07:52:12;;;;;;;13.75;8.43;;;5.40;99.90;;;;;;4825325;29;20406;-82
2022/12/05 07:54:38;;;;;;;11.35;8.02;;;5.40;99.90;;;;;;4814229;29;20205;-82
2022/12/05 07:57:03;;;;;;;12.18;8.32;;;5.50;99.90;;;;;;4814022;29;20065;-82
2022/12/05 07:59:29;;;;;;;11.90;8.23;;;5.40;99.90;;;;;;4798917;29;20050;-81
2022/12/05 08:01:54;;;;;;;13.45;8.38;;;5.40;99.90;;;;;;4796160;29;20108;-83
2022/12/05 08:04:20;;;;;;;12.68;9.10;;;5.40;99.90;;;;;;4800361;29;20149;-85
2022/12/05 08:06:46;;;;;;;14.45;8.82;;;5.50;99.90;;;;;;4804283;29;20054;-83
2022/12/05 08:09:11;;;;;;;14.07;8.65;;;5.40;99.90;;;;;;4804126;29;20050;-83
2022/12/05 08:11:37;;;;;;;13.95;9.00;;;5.50;99.90;;;;;;4804826;29;20074;-84
2022/12/05 08:14:04;;;;;;;14.80;8.10;;;5.40;99.90;;;;;;4805309;29;20038;-83
2022/12/05 08:16:31;;;;;;;12.70;9.13;;;5.50;99.90;;;;;;4819112;29;20046;-85
2022/12/05 08:19:01;;;;;;;13.57;8.27;;;5.40;99.90;;;;;;4786618;29;20042;-85
2022/12/05 08:21:27;;;;;;;15.98;8.75;;;5.40;99.90;;;;;;4807274;29;20050;-85
2022/12/05 08:23:53;;;;;;;14.20;8.57;;;5.50;99.90;;;;;;4787237;29;20053;-85
2022/12/05 08:26:30;;;;;;;13.38;7.95;;;5.50;99.90;;;;;;4805213;29;20050;-85
2022/12/05 08:29:01;;;;;;;15.10;8.48;;;5.50;99.90;;;;;;4815254;29;20514;-85
2022/12/05 08:31:29;;;;;;;13.30;8.75;;;5.50;99.90;;;;;;4807862;29;20143;-84
2022/12/05 08:33:58;;;;;;;17.05;8.82;;;5.40;99.90;;;;;;4802096;29;20125;-85
2022/12/05 08:36:24;;;;;;;16.63;9.73;;;5.50;99.90;;;;;;4804483;29;20057;-85
2022/12/05 08:38:55;;;;;;;16.83;8.65;;;5.40;99.90;;;;;;4788300;29;20038;-85
2022/12/05 08:41:21;;;;;;;13.63;8.43;;;5.50;99.90;;;;;;4807415;29;20375;-84
2022/12/05 08:43:47;;;;;;;14.10;8.40;;;5.40;99.90;;;;;;4801280;29;20056;-85
2022/12/05 08:46:12;;;;;;;16.27;9.15;;;5.40;99.90;;;;;;4808586;29;20072;-85
2022/12/05 08:48:38;;;;;;;16.35;9.05;;;5.50;99.90;;;;;;4802247;29;20058;-83
2022/12/05 08:51:09;;;;;;;14.07;8.18;;;5.40;99.90;;;;;;4813534;29;20039;-83
2022/12/05 08:53:36;;;;;;;18.23;9.07;;;5.40;99.90;;;;;;4817904;29;20041;-82
2022/12/05 08:56:05;;;;;;;13.95;8.05;;;5.40;99.90;;;;;;4809241;29;20066;-83
2022/12/05 08:58:31;;;;;;;11.90;7.88;;;5.40;99.90;;;;;;4809150;29;21858;-82
2022/12/05 09:01:08;;;;;;;17.90;8.52;;;5.40;99.90;;;;;;4804816;29;20134;-83
2022/12/05 09:03:35;;;;;;;11.20;8.20;;;5.40;99.90;;;;;;4815807;29;20046;-82
2022/12/05 09:06:29;;;;;;;13.00;8.57;;;5.50;99.90;;;;;;4813806;29;20110;-82
2022/12/05 09:08:58;;;;;;;13.95;8.02;;;5.50;99.90;;;;;;4806756;29;20085;-82
2022/12/05 09:11:26;;;;;;;14.13;8.02;;;5.50;99.90;;;;;;4803632;29;20050;-84
2022/12/05 09:13:53;;;;;;;12.85;8.30;;;5.50;99.90;;;;;;4798564;29;20057;-82
2022/12/05 09:16:25;;;;;;;16.65;8.35;;;5.50;99.90;;;;;;4809441;29;20054;-82
2022/12/05 09:18:51;;;;;;;10.50;7.07;;;5.40;99.90;;;;;;4813324;29;20913;-81
2022/12/05 09:21:22;;;;;;;16.15;8.30;;;5.50;99.90;;;;;;4814582;29;20061;-82
2022/12/05 09:23:49;;;;;;;13.23;8.35;;;5.40;99.90;;;;;;4815914;29;20081;-82
2022/12/05 09:26:17;;;;;;;15.80;8.15;;;5.40;99.90;;;;;;4817408;29;20050;-82
2022/12/05 09:28:43;;;;;;;13.48;7.80;;;5.50;99.90;;;;;;4818395;29;20481;-82
2022/12/05 09:31:11;;;;;;;12.25;7.72;;;5.40;99.90;;;;;;4851729;29;20113;-84
2022/12/05 09:33:38;;;;;;;11.38;6.97;;;5.40;99.90;;;;;;4830666;29;20043;-82
2022/12/05 09:36:15;;;;;;;11.73;7.15;;;5.40;99.90;;;;;;4830207;29;20054;-82
2022/12/05 09:38:41;;;;;;;9.75;6.95;;;5.40;99.90;;;;;;4832079;29;20057;-84
2022/12/05 09:42:12;;;;;;;13.02;6.95;;;5.40;99.90;;;;;;4802436;29;20062;-84
2022/12/05 09:44:36;;;;;;;10.93;7.07;;;5.50;99.90;;;;;;4802427;29;20050;-83
2022/12/05 09:47:40;;;;;;;9.35;6.85;;;5.40;99.90;;;;;;4800412;29;20057;-84
2022/12/05 09:50:24;;;;;;;11.50;7.10;;;5.50;99.90;;;;;;4778028;29;20058;-82
2022/12/05 09:52:57;;;;;;;9.43;6.60;;;5.40;99.90;;;;;;4822148;29;20052;-83
2022/12/05 09:55:23;;;;;;;11.07;6.85;;;5.40;99.90;;;;;;4819836;29;20038;-82
2022/12/05 09:57:54;;;;;;;11.60;6.93;;;5.40;99.90;;;;;;4821945;29;20049;-83
2022/12/05 10:00:20;;;;;;;9.30;6.68;;;5.40;99.90;;;;;;4806274;29;20042;-84
2022/12/05 10:03:14;;;;;;;11.43;7.32;;;5.40;99.90;;;;;;4824474;29;20142;-82
2022/12/05 10:05:50;;;;;;;12.57;7.20;;;5.40;99.90;;;;;;4853033;29;20045;-82
2022/12/05 10:08:36;;;;;;;13.73;8.25;;;5.50;99.90;;;;;;4808102;29;20034;-84
2022/12/05 10:11:26;;;;;;;12.57;7.50;;;5.50;99.90;;;;;;4814306;29;20050;-83
2022/12/05 10:14:07;;;;;;;14.20;7.32;;;5.40;99.90;;;;;;4808113;29;20030;-83
2022/12/05 10:16:45;;;;;;;12.98;7.90;;;5.40;99.90;;;;;;4803272;29;20048;-83
2022/12/05 10:19:17;;;;;;;11.10;7.38;;;5.50;99.90;;;;;;4816591;29;20061;-84
2022/12/05 10:21:58;;;;;;;12.80;7.78;;;5.40;99.90;;;;;;4808425;29;20043;-82
2022/12/05 10:24:40;;;;;;;12.15;7.35;;;5.40;99.90;;;;;;4808045;29;20042;-83
2022/12/05 10:27:09;;;;;;;12.50;7.55;;;5.50;99.90;;;;;;4815460;29;20070;-83
2022/12/05 10:29:43;;;;;;;15.98;8.20;;;5.40;99.90;;;;;;4806510;29;20478;-83
2022/12/05 10:32:21;;;;;;;14.20;7.93;;;5.50;99.90;;;;;;4802691;29;20042;-83
2022/12/05 10:34:49;;;;;;;10.32;7.53;;;5.50;99.90;;;;;;4815947;29;20050;-85
2022/12/05 10:37:19;;;;;;;10.48;7.38;;;5.50;99.90;;;;;;4818008;29;20056;-84
2022/12/05 10:39:46;;;;;;;11.57;7.72;;;5.40;99.90;;;;;;4796924;29;20053;-83
2022/12/05 10:42:22;;;;;;;10.73;7.50;;;5.40;99.90;;;;;;4818345;29;20045;-84
2022/12/05 10:45:04;;;;;;;12.18;7.38;;;5.50;99.90;;;;;;4813118;29;20046;-84
2022/12/05 10:47:31;;;;;;;10.55;6.68;;;5.40;99.90;;;;;;4807505;29;20047;-83
2022/12/05 10:50:02;;;;;;;10.63;6.72;;;5.40;99.90;;;;;;4815251;29;20077;-84
2022/12/05 10:52:29;;;;;;;11.30;7.10;;;5.40;99.90;;;;;;4813369;29;20042;-83
2022/12/05 10:55:03;;;;;;;13.00;7.93;;;5.40;99.90;;;;;;4805896;29;20034;-84
2022/12/05 10:57:29;;;;;;;12.52;7.95;;;5.40;99.90;;;;;;4819540;29;20045;-83
2022/12/05 10:59:56;;;;;;;10.68;7.38;;;5.40;99.90;;;;;;4815791;29;20092;-83
2022/12/05 11:02:21;;;;;;;13.05;7.68;;;5.40;99.90;;;;;;4799528;29;20045;-83
2022/12/05 11:04:47;;;;;;;11.45;7.20;;;5.40;99.90;;;;;;4817046;29;20054;-84
2022/12/05 11:07:31;;;;;;;13.55;7.88;;;5.40;99.90;;;;;;4791813;29;20042;-84
2022/12/05 11:09:59;;;;;;;12.23;7.88;;;5.40;99.90;;;;;;4809311;29;20525;-83
2022/12/05 11:12:37;;;;;;;10.07;8.10;;;5.40;99.90;;;;;;4809944;29;20073;-83
2022/12/05 11:15:15;;;;;;;10.13;7.07;;;5.40;99.90;;;;;;4792313;29;20053;-83
2022/12/05 11:17:41;;;;;;;11.43;7.65;;;5.40;99.90;;;;;;4826907;29;20053;-84
2022/12/05 11:20:30;;;;;;;16.40;9.18;;;5.40;99.90;;;;;;4812885;29;20056;-84
2022/12/05 11:22:58;;;;;;;12.80;7.95;;;5.40;99.90;;;;;;4800590;29;20061;-83
2022/12/05 11:25:35;;;;;;;12.50;7.28;;;5.40;99.90;;;;;;4808176;29;20046;-83
2022/12/05 11:28:16;;;;;;;14.20;8.05;;;5.40;99.90;;;;;;4810805;29;20061;-84
2022/12/05 11:31:03;;;;;;;14.48;8.00;;;5.40;99.90;;;;;;4808396;29;20054;-83
2022/12/05 11:33:32;;;;;;;12.00;8.10;;;5.40;99.90;;;;;;4794424;29;20177;-85
2022/12/05 11:36:12;;;;;;;11.80;8.23;;;5.40;99.90;;;;;;4810102;29;20054;-84
2022/12/05 11:38:39;;;;;;;10.02;7.50;;;5.40;99.90;;;;;;4821480;29;20494;-83
2022/12/05 11:41:26;;;;;;;9.93;7.40;;;5.40;99.90;;;;;;4793046;29;20050;-84
2022/12/05 11:44:08;;;;;;;11.85;7.18;;;5.40;99.90;;;;;;4827526;29;20492;-83
2022/12/05 11:46:45;;;;;;;8.95;7.00;;;5.50;99.90;;;;;;4814741;29;20053;-83
2022/12/05 11:49:31;;;;;;;10.65;7.03;;;5.40;99.90;;;;;;4801190;29;20046;-83
2022/12/05 11:52:27;;;;;;;9.10;6.70;;;5.40;99.90;;;;;;4813917;29;20058;-83
2022/12/05 11:55:23;;;;;;;8.67;6.37;;;5.50;99.90;;;;;;4828835;29;20072;-82
2022/12/05 11:58:09;;;;;;;8.90;5.72;;;5.50;99.90;;;;;;4804154;29;20330;-84
2022/12/05 12:04:29;;;;;;;7.45;5.63;;;5.50;99.90;;;;;;4824550;29;20053;-85
2022/12/05 12:07:22;;;;;;;6.85;4.97;;;5.50;99.90;;;;;;4807650;29;20096;-86
2022/12/05 12:10:16;;;;;;;9.35;4.90;;;5.50;99.90;;;;;;4805984;29;20043;-84
2022/12/05 12:12:52;;;;;;;8.30;5.63;;;5.50;99.90;;;;;;4805528;29;20780;-85
2022/12/05 12:15:48;;;;;;;8.63;5.22;;;5.50;99.90;;;;;;4824122;29;20049;-85
2022/12/05 12:18:44;;;;;;;7.35;4.95;;;5.50;99.90;;;;;;4796865;29;20050;-86
2022/12/05 12:21:20;;;;;;;7.32;4.75;;;5.90;99.90;;;;;;4811643;29;20046;-85
2022/12/05 12:24:20;;;;;;;7.93;5.28;;;6.30;99.90;;;;;;4808568;29;20451;-85
2022/12/05 12:27:18;;;;;;;6.93;4.32;;;5.50;99.90;;;;;;4808126;29;20595;-85
2022/12/05 12:30:26;;;;;;;5.70;4.57;;;5.50;99.90;;;;;;4810208;29;20098;-85
2022/12/05 12:32:59;;;;;;;6.60;5.45;;;5.50;99.90;;;;;;4796888;29;20061;-85
2022/12/05 12:35:59;;;;;;;6.38;4.80;;;5.50;99.90;;;;;;4809819;29;20095;-84
2022/12/05 12:38:25;;;;;;;8.43;5.35;;;5.50;99.90;;;;;;4805329;29;20137;-84
2022/12/05 12:40:57;;;;;;;6.65;4.55;;;5.50;99.90;;;;;;4806854;29;20125;-85
2022/12/05 12:43:41;;;;;;;6.25;4.60;;;5.60;99.90;;;;;;4804102;29;20046;-84
2022/12/05 12:46:25;;;;;;;5.20;3.85;;;5.60;99.90;;;;;;4804579;29;20839;-84
2022/12/05 12:49:22;;;;;;;7.53;4.53;;;5.50;99.90;;;;;;4805472;29;20391;-85
2022/12/05 12:51:56;;;;;;;7.05;4.25;;;5.50;99.90;;;;;;4806690;29;20046;-84
2022/12/05 12:54:36;;;;;;;7.70;4.43;;;5.60;99.90;;;;;;4823483;29;20125;-85
2022/12/05 12:57:10;;;;;;;8.60;4.70;;;5.50;99.90;;;;;;4807962;29;20046;-84
2022/12/05 13:00:08;;;;;;;8.10;4.18;;;5.60;99.90;;;;;;4811329;29;20455;-84
2022/12/05 13:02:51;;;;;;;6.72;4.13;;;5.60;99.90;;;;;;4794967;29;20045;-85
2022/12/05 13:05:35;;;;;;;6.18;4.28;;;5.50;99.90;;;;;;4806399;29;20647;-84
2022/12/05 13:08:12;;;;;;;4.72;3.72;;;5.50;99.90;;;;;;4801533;29;20096;-84
2022/12/05 13:10:43;;;;;;;6.45;4.30;;;5.50;99.90;;;;;;4802743;29;20501;-84
2022/12/05 13:13:13;;;;;;;6.68;4.05;;;5.50;99.90;;;;;;4805419;29;20034;-85
2022/12/05 13:15:46;;;;;;;7.43;5.15;;;5.50;99.90;;;;;;4805258;29;20487;-84
2022/12/05 13:18:38;;;;;;;9.18;5.40;;;5.50;99.90;;;;;;4796315;29;20121;-85
2022/12/05 13:21:08;;;;;;;6.07;4.45;;;5.50;99.90;;;;;;4791903;29;20786;-84
2022/12/05 13:23:45;;;;;;;8.68;5.38;;;5.60;99.90;;;;;;4810867;29;20073;-84